Lockport, LA (70374)

11:07 AM CDT on May 26, 2015 (GMT -0500)
APRSWXNET | | Change Station
CLOSE
Current Station
Personal Weather Station
Location: Mathews, LA
Elevation: 65 ft
Nearby Weather Stations

Elev 65 ft 29.66 °N, 90.54 °W | Updated 34 minutes ago

Partly Cloudy
Partly Cloudy
73 °F
Feels Like 72 °F
N
4
Wind Variable Wind from NE
Gusts 0.0 mph

Today
High -- | Low -- °F
--% Chance of Precip.
Yesterday
High -- | Low -- °F
Precip. -- in
6:03 AM 7:54 PM
First Quarter, 59% visible
Pressure 30.09 in
Visibility 7.0 miles
Clouds Scattered Clouds 8500 ft
Heat Index 72 °F
Dew Point 68 °F
Humidity 84%
Rainfall in
Snow Depth Not available.
UV 6 out of 12
Pollen 3.60 out of 12
Air Quality Not available.
Flu Activity Sporadic
METAR KHUM 261450Z 07005KT 7SM SCT085 21/18 A3009 RMK ATIS L VA RY36...RJ

More Conditions Fewer Conditions

Pressure 30.09 in
Visibility 7.0 miles
Clouds Scattered Clouds 8500 ft
Heat Index 72 °F
Dew Point 68 °F
Humidity 84%
Rainfall in
Snow Depth Not available.
UV 6 out of 12
Pollen 3.60 out of 12
Air Quality Not available.
Flu Activity Sporadic
METAR KHUM 261450Z 07005KT 7SM SCT085 21/18 A3009 RMK ATIS L VA RY36...RJ

More Conditions Fewer Conditions

10-Day Weather Forecast

Almanac

Astronomy

May. 26, 2015 Rise Set
Actual Time
Civil Twilight
Nautical Twilight
Astronomical Twilight
Moon
Length of Visible Light
Length of Day
Tomorrow will be .
, % of the Moon is Illuminated

Today's Extremes

State Highs State Lows

Community

WunderPhotos

Upload Photos

1,824,375 photos uploaded!

WunderBlogs® & News

Nearby

Air Quality

  Air Quality AQ Index Pollutant
Not available.

Snow Depth

Station Depth Elevation

Earthquake Activity

City Distance Mag. Time & Date
Minimum magnitude displayed is 2.5.

Coastal Water Temperatures

Place Temperature

Stations

Nearby Weather Stations

Station Location Temp. Windchill Dew Point Humidity Wind Precip. Elev Updated Type